Time;durP1;ratioP1;P1;durP2;ratioP2;P2;SDS_P1;SDS_P2;PMS_P1;PMS_P2;Temp;Humidity;BMP_temperature;BMP_pressure;BME280_temperature;BME280_humidity;BME280_pressure;Samples;Min_cycle;Max_cycle;Signal;HPM_P1;HPM_P2
2023/01/11 00:00:29;;;;;;;11.45;4.47;;;;;;;11.28;100.00;100522.31;5008822;28;20714;-65
2023/01/11 00:02:56;;;;;;;11.65;5.03;;;;;;;11.29;100.00;100531.94;5008124;28;20744;-67
2023/01/11 00:05:22;;;;;;;12.50;5.55;;;;;;;11.36;100.00;100512.31;5009321;28;20025;-66
2023/01/11 00:07:47;;;;;;;15.43;4.90;;;;;;;11.33;100.00;100516.84;5009594;28;20745;-67
2023/01/11 00:10:12;;;;;;;10.10;4.45;;;;;;;11.34;100.00;100513.28;5009547;28;20029;-70
2023/01/11 00:12:38;;;;;;;9.88;4.75;;;;;;;11.32;100.00;100507.22;5009728;28;20046;-65
2023/01/11 00:15:03;;;;;;;13.43;4.28;;;;;;;11.33;100.00;100520.34;5009362;28;20029;-66
2023/01/11 00:17:28;;;;;;;13.88;4.95;;;;;;;11.31;100.00;100510.75;5008460;28;20028;-66
2023/01/11 00:19:54;;;;;;;16.30;5.72;;;;;;;11.32;100.00;100523.03;5009617;28;20029;-67
2023/01/11 00:22:19;;;;;;;9.00;4.47;;;;;;;11.36;100.00;100506.16;5009392;28;20030;-67
2023/01/11 00:24:44;;;;;;;12.52;4.75;;;;;;;11.31;100.00;100513.41;5009144;28;20033;-66
2023/01/11 00:27:10;;;;;;;16.92;4.28;;;;;;;11.27;100.00;100515.31;5008421;28;20030;-66
2023/01/11 00:29:35;;;;;;;10.25;3.88;;;;;;;11.37;100.00;100511.38;5009305;28;20057;-67
2023/01/11 00:32:00;;;;;;;12.20;4.22;;;;;;;11.38;100.00;100517.53;5008575;28;20030;-66
2023/01/11 00:34:26;;;;;;;10.25;4.07;;;;;;;11.33;100.00;100520.34;5009566;28;20041;-68
2023/01/11 00:36:51;;;;;;;8.98;3.50;;;;;;;11.33;100.00;100515.06;5009394;28;20028;-66
2023/01/11 00:39:17;;;;;;;7.97;3.92;;;;;;;11.41;100.00;100521.78;5009585;28;20077;-67
2023/01/11 00:49:58;;;;;;;10.48;4.03;;;;;;;11.39;100.00;100503.41;5008624;28;20096;-66
2023/01/11 00:52:24;;;;;;;6.82;4.13;;;;;;;11.45;100.00;100518.09;5008900;28;20025;-65
2023/01/11 00:54:49;;;;;;;10.50;4.03;;;;;;;11.47;100.00;100516.25;5009651;28;20400;-67
2023/01/11 00:57:15;;;;;;;6.53;3.53;;;;;;;11.52;100.00;100519.53;5008736;28;20033;-70
2023/01/11 00:59:40;;;;;;;11.10;4.15;;;;;;;11.47;100.00;100521.53;4991414;28;20116;-65
2023/01/11 01:02:07;;;;;;;11.32;4.20;;;;;;;11.46;100.00;100511.88;5007891;28;20108;-67
2023/01/11 01:04:32;;;;;;;6.82;3.50;;;;;;;11.47;100.00;100513.63;5008765;28;20029;-63
2023/01/11 01:06:58;;;;;;;7.88;3.67;;;;;;;11.54;100.00;100511.56;5007325;28;20030;-65
2023/01/11 01:09:23;;;;;;;7.65;3.28;;;;;;;11.55;100.00;100514.13;5008274;28;20418;-69
2023/01/11 01:11:48;;;;;;;8.15;4.10;;;;;;;11.55;100.00;100522.06;5008571;28;20088;-68
2023/01/11 01:14:27;;;;;;;7.50;3.58;;;;;;;11.49;100.00;100514.41;5008520;28;20025;-64
2023/01/11 01:17:06;;;;;;;6.88;3.47;;;;;;;11.49;100.00;100517.91;4990262;28;20385;-66
2023/01/11 01:19:34;;;;;;;9.93;3.75;;;;;;;11.62;100.00;100514.75;5008494;28;20048;-67
2023/01/11 01:21:59;;;;;;;8.60;3.50;;;;;;;11.60;100.00;100519.22;5008745;28;20127;-65
2023/01/11 01:24:27;;;;;;;6.45;4.07;;;;;;;11.53;100.00;100526.53;5008928;28;20034;-69
2023/01/11 01:26:53;;;;;;;7.35;4.03;;;;;;;11.62;100.00;100536.69;5008159;28;20033;-66
2023/01/11 01:29:18;;;;;;;5.53;3.88;;;;;;;11.65;100.00;100538.34;5008242;28;20030;-65
2023/01/11 01:31:44;;;;;;;5.90;4.05;;;;;;;11.56;100.00;100518.47;5007633;28;20022;-65
2023/01/11 01:34:10;;;;;;;7.43;4.13;;;;;;;11.59;100.00;100547.38;5008717;28;20049;-67
2023/01/11 01:36:35;;;;;;;8.40;4.18;;;;;;;11.58;100.00;100536.88;5008909;28;20026;-65
2023/01/11 01:39:02;;;;;;;10.65;4.78;;;;;;;11.53;100.00;100534.44;5008584;28;20064;-67
2023/01/11 01:41:27;;;;;;;5.32;3.70;;;;;;;11.60;100.00;100546.47;5009155;28;20220;-65
2023/01/11 01:44:00;;;;;;;7.80;4.10;;;;;;;11.65;100.00;100555.97;4991072;28;20116;-65
2023/01/11 01:46:28;;;;;;;7.93;4.28;;;;;;;11.64;100.00;100547.19;5008086;28;20034;-66
2023/01/11 01:49:00;;;;;;;10.10;4.55;;;;;;;11.61;100.00;100549.94;5007801;28;20022;-67
2023/01/11 01:51:55;;;;;;;8.77;4.70;;;;;;;11.61;100.00;100558.75;4991344;28;20540;-66
2023/01/11 01:54:24;;;;;;;6.13;3.90;;;;;;;11.65;100.00;100548.91;4988217;28;20073;-61
2023/01/11 01:56:57;;;;;;;6.32;4.78;;;;;;;11.65;100.00;100551.53;5012998;28;20026;-66
2023/01/11 01:59:25;;;;;;;8.20;4.43;;;;;;;11.65;100.00;100564.72;5012566;28;20477;-67
2023/01/11 02:01:51;;;;;;;8.23;4.10;;;;;;;11.67;100.00;100548.81;5011533;28;20062;-67
2023/01/11 02:04:29;;;;;;;5.88;4.28;;;;;;;11.66;100.00;100561.19;5070880;23;20066;-64
2023/01/11 02:07:02;;;;;;;6.47;3.83;;;;;;;11.71;100.00;100563.63;5010634;28;20515;-68
2023/01/11 02:09:45;;;;;;;5.30;3.72;;;;;;;11.65;100.00;100550.69;5011488;28;20034;-67
2023/01/11 02:12:11;;;;;;;4.82;3.88;;;;;;;11.68;100.00;100574.31;5012019;28;20091;-67
2023/01/11 02:14:37;;;;;;;4.45;3.80;;;;;;;11.73;100.00;100574.97;5011766;28;20026;-68
2023/01/11 02:17:03;;;;;;;7.88;3.88;;;;;;;11.66;100.00;100566.47;5010147;28;20022;-68
2023/01/11 02:19:57;;;;;;;6.88;3.70;;;;;;;11.77;100.00;100565.13;5012304;28;20052;-69
2023/01/11 02:22:44;;;;;;;9.05;3.80;;;;;;;11.86;100.00;100562.94;5010642;28;20022;-67
2023/01/11 02:25:37;;;;;;;4.88;3.20;;;;;;;11.85;100.00;100577.09;4994059;28;20034;-69
2023/01/11 02:28:22;;;;;;;9.90;3.47;;;;;;;11.91;100.00;100559.25;5010293;28;20083;-66
2023/01/11 02:30:57;;;;;;;7.38;3.50;;;;;;;11.98;100.00;100558.91;5009543;28;20056;-63
2023/01/11 02:33:54;;;;;;;8.73;3.05;;;;;;;11.96;100.00;100560.78;5010090;28;20084;-66
2023/01/11 02:36:47;;;;;;;5.75;2.90;;;;;;;12.02;100.00;100559.63;5010924;28;20064;-67
2023/01/11 02:39:16;;;;;;;9.52;2.85;;;;;;;12.07;100.00;100568.22;5010362;28;20099;-68
2023/01/11 02:45:16;;;;;;;9.35;3.00;;;;;;;12.07;100.00;100578.78;5004903;28;19920;-68
2023/01/11 02:47:53;;;;;;;5.85;2.42;;;;;;;12.12;100.00;100591.81;5011861;28;20030;-67
2023/01/11 02:50:34;;;;;;;5.18;2.53;;;;;;;12.17;100.00;100544.06;5011930;28;20026;-65
2023/01/11 02:53:15;;;;;;;4.72;2.00;;;;;;;12.06;100.00;100579.69;4991728;28;20034;-65
2023/01/11 02:55:43;;;;;;;6.95;1.95;;;;;;;12.00;100.00;100564.13;4991599;28;20030;-67
2023/01/11 02:58:10;;;;;;;4.97;1.60;;;;;;;12.04;100.00;100575.41;4990704;28;20034;-66
2023/01/11 03:00:37;;;;;;;5.88;2.08;;;;;;;11.96;100.00;100587.19;4990284;28;20077;-68
2023/01/11 03:03:29;;;;;;;6.18;1.50;;;;;;;11.91;100.00;100590.91;4990629;28;20054;-67
2023/01/11 03:06:10;;;;;;;8.48;1.80;;;;;;;11.96;100.00;100589.81;4991045;28;20032;-67
2023/01/11 03:08:51;;;;;;;9.05;2.22;;;;;;;11.93;100.00;100597.88;4992404;28;20032;-66
2023/01/11 03:14:48;;;;;;;7.63;2.08;;;;;;;11.91;100.00;100589.16;5006087;28;20076;-67
2023/01/11 03:18:01;;;;;;;9.75;2.78;;;;;;;11.92;100.00;100600.59;5010616;28;20030;-66
2023/01/11 03:20:41;;;;;;;11.48;2.60;;;;;;;11.84;100.00;100595.63;4912303;29;20036;-64
2023/01/11 03:23:28;;;;;;;12.68;2.67;;;;;;;11.82;100.00;100595.69;4981706;28;20049;-66
2023/01/11 03:26:09;;;;;;;11.55;2.38;;;;;;;11.85;100.00;100590.28;5010635;28;20096;-67
2023/01/11 03:28:39;;;;;;;19.83;2.83;;;;;;;11.82;100.00;100592.19;5009630;28;20041;-66
2023/01/11 03:31:14;;;;;;;19.48;2.80;;;;;;;11.95;100.00;100616.28;5010002;28;20037;-65
2023/01/11 03:34:10;;;;;;;22.05;2.70;;;;;;;11.92;100.00;100597.94;5009127;28;20423;-64
2023/01/11 03:36:40;;;;;;;12.57;3.00;;;;;;;11.88;100.00;100595.44;5009378;28;20373;-66
2023/01/11 03:39:15;;;;;;;11.27;2.35;;;;;;;11.88;100.00;100595.44;4990764;28;20465;-67
2023/01/11 03:41:42;;;;;;;11.23;3.17;;;;;;;11.94;100.00;100601.34;4990081;28;20077;-65
2023/01/11 03:44:09;;;;;;;13.30;2.85;;;;;;;11.95;100.00;100600.44;4990765;28;20030;-66
2023/01/11 03:46:55;;;;;;;22.20;2.88;;;;;;;11.98;100.00;100621.44;4990105;28;20394;-66
2023/01/11 03:49:30;;;;;;;18.40;2.83;;;;;;;11.98;100.00;100619.63;4990096;28;20081;-65
2023/01/11 03:51:57;;;;;;;15.77;3.47;;;;;;;12.03;100.00;100613.28;4990033;28;20030;-66
2023/01/11 03:54:25;;;;;;;28.08;3.97;;;;;;;11.84;100.00;100628.19;4989375;28;20041;-65
2023/01/11 03:57:13;;;;;;;17.70;3.22;;;;;;;11.99;100.00;100623.16;4989700;28;20169;-64
2023/01/11 03:59:39;;;;;;;20.90;3.30;;;;;;;11.90;100.00;100621.78;4989671;28;20019;-68
2023/01/11 04:02:14;;;;;;;19.60;3.10;;;;;;;12.10;100.00;100626.19;4990047;28;20041;-67
2023/01/11 04:04:39;;;;;;;19.35;3.03;;;;;;;12.06;100.00;100651.00;4990327;28;20105;-65
2023/01/11 04:07:04;;;;;;;22.05;3.55;;;;;;;12.05;100.00;100648.44;4990600;28;20030;-66
2023/01/11 04:09:29;;;;;;;26.52;3.65;;;;;;;12.00;100.00;100667.09;4989283;28;20027;-66
2023/01/11 04:11:55;;;;;;;27.25;3.60;;;;;;;12.01;100.00;100663.53;4990206;28;20054;-66
2023/01/11 04:14:20;;;;;;;30.52;3.97;;;;;;;12.09;100.00;100656.19;4990729;28;20068;-63
2023/01/11 04:16:46;;;;;;;25.40;3.75;;;;;;;11.96;100.00;100668.16;5003281;28;20066;-66
2023/01/11 04:19:11;;;;;;;27.67;4.03;;;;;;;12.09;100.00;100672.03;4989958;28;20708;-66
2023/01/11 04:21:36;;;;;;;23.20;3.88;;;;;;;12.04;100.00;100666.03;4989909;28;20027;-67
2023/01/11 04:24:02;;;;;;;26.67;4.20;;;;;;;11.99;100.00;100678.59;4972573;28;20491;-67
2023/01/11 04:26:27;;;;;;;16.30;3.15;;;;;;;11.91;100.00;100678.03;4990258;28;20041;-67
2023/01/11 04:28:52;;;;;;;25.85;3.95;;;;;;;12.00;100.00;100696.16;4990089;28;20025;-66
2023/01/11 04:31:18;;;;;;;27.27;4.45;;;;;;;12.00;100.00;100669.75;4990027;28;20030;-66
2023/01/11 04:33:43;;;;;;;23.95;3.85;;;;;;;12.00;100.00;100660.06;4989866;28;20034;-65
2023/01/11 04:36:09;;;;;;;26.13;4.57;;;;;;;12.07;100.00;100673.03;4992406;28;20085;-66
2023/01/11 04:38:35;;;;;;;23.85;4.25;;;;;;;11.96;100.00;100682.25;5008502;28;20500;-64
2023/01/11 04:43:46;;;;;;;26.17;4.40;;;;;;;12.06;100.00;100689.75;4987681;28;20029;-67
2023/01/11 04:46:11;;;;;;;28.13;4.20;;;;;;;11.88;100.00;100693.13;5028904;28;20029;-68
2023/01/11 04:48:38;;;;;;;20.40;3.72;;;;;;;11.88;100.00;100698.41;5030817;28;20161;-68
2023/01/11 04:51:05;;;;;;;29.10;3.55;;;;;;;11.93;100.00;100689.41;5029220;28;20096;-65
2023/01/11 04:53:31;;;;;;;25.17;3.65;;;;;;;11.81;100.00;100694.31;5029941;28;20044;-67
2023/01/11 04:56:01;;;;;;;27.95;3.55;;;;;;;11.78;100.00;100702.34;5029451;28;20018;-66
2023/01/11 04:58:31;;;;;;;27.45;4.10;;;;;;;11.72;100.00;100702.59;5011871;28;20453;-65
2023/01/11 05:00:56;;;;;;;26.10;4.07;;;;;;;11.77;100.00;100697.97;5012442;28;20025;-68
2023/01/11 05:03:22;;;;;;;32.95;4.45;;;;;;;11.68;100.00;100711.56;5031012;28;20047;-65
2023/01/11 05:05:55;;;;;;;29.50;4.20;;;;;;;11.67;100.00;100712.47;5029360;28;20474;-67
2023/01/11 05:08:20;;;;;;;19.50;3.35;;;;;;;11.74;100.00;100700.75;5010741;28;20080;-63
2023/01/11 05:10:53;;;;;;;19.23;3.20;;;;;;;11.65;100.00;100699.31;5009858;28;20464;-66
2023/01/11 05:13:19;;;;;;;30.17;3.75;;;;;;;11.62;100.00;100710.88;5008791;28;20022;-66
2023/01/11 05:15:44;;;;;;;22.63;3.15;;;;;;;11.67;100.00;100726.53;5009117;28;20021;-66
2023/01/11 05:18:09;;;;;;;20.95;3.30;;;;;;;11.53;100.00;100728.88;5009698;28;20476;-68
2023/01/11 05:20:35;;;;;;;15.63;2.95;;;;;;;11.52;100.00;100728.00;5010142;28;20032;-67
2023/01/11 05:23:00;;;;;;;16.95;2.58;;;;;;;11.54;100.00;100725.28;5015720;28;20108;-65
2023/01/11 05:25:25;;;;;;;19.08;2.83;;;;;;;11.48;100.00;100734.31;5028637;28;20160;-63
2023/01/11 05:27:51;;;;;;;18.42;3.13;;;;;;;11.53;100.00;100742.06;5028164;28;20052;-65
2023/01/11 05:30:16;;;;;;;15.82;2.47;;;;;;;11.52;100.00;100735.91;5027010;28;20072;-67
2023/01/11 05:32:41;;;;;;;23.33;3.00;;;;;;;11.42;100.00;100745.13;5028177;28;20037;-64
2023/01/11 05:35:10;;;;;;;22.38;3.50;;;;;;;11.50;100.00;100740.41;5028372;28;20609;-66
2023/01/11 05:37:35;;;;;;;19.38;2.85;;;;;;;11.49;100.00;100751.88;5027807;28;20047;-67
2023/01/11 05:40:01;;;;;;;24.80;3.60;;;;;;;11.40;100.00;100749.56;5027752;28;20500;-65
2023/01/11 05:42:26;;;;;;;19.40;2.78;;;;;;;11.47;100.00;100748.44;5024430;28;20448;-67
2023/01/11 05:47:35;;;;;;;17.60;3.17;;;;;;;11.33;100.00;100751.59;5028282;28;20076;-67
2023/01/11 05:50:00;;;;;;;17.48;3.25;;;;;;;11.36;100.00;100751.50;5028110;28;20053;-62
2023/01/11 05:52:26;;;;;;;16.20;2.78;;;;;;;11.28;100.00;100754.41;5027431;28;20053;-66
2023/01/11 05:54:51;;;;;;;16.75;3.05;;;;;;;11.21;100.00;100763.47;5026532;28;20064;-66
2023/01/11 05:57:16;;;;;;;17.50;3.03;;;;;;;11.14;100.00;100767.28;5027999;28;20112;-66
2023/01/11 05:59:42;;;;;;;18.42;2.70;;;;;;;11.21;100.00;100766.13;5027734;28;20018;-68
2023/01/11 06:02:07;;;;;;;16.63;2.83;;;;;;;11.24;100.00;100768.66;5026744;28;20029;-66
2023/01/11 06:04:32;;;;;;;21.77;3.25;;;;;;;11.21;100.00;100779.31;5027793;28;20073;-66
2023/01/11 06:06:58;;;;;;;19.08;2.75;;;;;;;11.23;100.00;100778.31;5027348;28;20052;-67
2023/01/11 06:09:23;;;;;;;28.42;3.08;;;;;;;11.22;100.00;100787.16;5027712;28;20060;-67
2023/01/11 06:11:49;;;;;;;17.15;2.80;;;;;;;11.27;100.00;100783.50;5028146;28;20030;-63
2023/01/11 06:14:14;;;;;;;22.33;3.50;;;;;;;11.19;100.00;100808.38;5027481;28;20045;-65
2023/01/11 06:16:40;;;;;;;12.23;2.65;;;;;;;11.06;100.00;100802.69;5027467;28;20043;-65
2023/01/11 06:19:05;;;;;;;16.30;2.80;;;;;;;11.16;100.00;100799.69;5009860;28;20036;-65
2023/01/11 06:21:30;;;;;;;22.50;2.70;;;;;;;11.16;100.00;100797.94;5027357;28;20025;-66
2023/01/11 06:23:56;;;;;;;17.15;2.97;;;;;;;10.93;100.00;100806.69;5027455;28;20041;-67
2023/01/11 06:26:22;;;;;;;22.05;3.72;;;;;;;10.95;100.00;100808.34;5026899;28;20022;-66
2023/01/11 06:28:47;;;;;;;17.13;2.55;;;;;;;10.99;100.00;100809.97;5028462;28;20025;-66
2023/01/11 06:31:14;;;;;;;19.20;2.40;;;;;;;11.04;100.00;100808.94;5026837;28;20037;-65
2023/01/11 06:33:40;;;;;;;16.75;2.75;;;;;;;10.96;100.00;100814.50;5028236;28;20416;-65
2023/01/11 06:36:08;;;;;;;16.52;3.25;;;;;;;11.01;100.00;100819.63;5027545;28;20032;-65
2023/01/11 06:38:34;;;;;;;20.98;2.92;;;;;;;10.91;100.00;100814.66;5028187;28;20516;-65
2023/01/11 06:41:01;;;;;;;22.88;2.67;;;;;;;10.93;100.00;100811.97;5029902;28;20072;-65
2023/01/11 06:43:27;;;;;;;16.58;3.38;;;;;;;10.78;100.00;100830.06;5030913;28;20384;-66
2023/01/11 06:45:53;;;;;;;19.92;2.47;;;;;;;10.83;100.00;100837.78;5030258;28;20029;-67
2023/01/11 06:48:19;;;;;;;20.40;2.95;;;;;;;10.83;100.00;100843.94;5031510;28;20018;-65
2023/01/11 06:50:53;;;;;;;24.35;3.33;;;;;;;10.87;100.00;100849.97;5031200;28;20113;-66
2023/01/11 06:53:19;;;;;;;28.52;3.33;;;;;;;10.78;100.00;100848.50;5030718;28;20049;-65
2023/01/11 06:55:49;;;;;;;20.15;3.17;;;;;;;10.66;100.00;100852.44;5032725;28;20056;-65
2023/01/11 06:58:14;;;;;;;21.02;3.53;;;;;;;10.78;100.00;100853.78;5031175;28;20021;-65
2023/01/11 07:00:39;;;;;;;19.63;3.65;;;;;;;10.70;100.00;100855.81;5031071;28;20044;-66
2023/01/11 07:03:05;;;;;;;30.60;3.60;;;;;;;10.67;100.00;100859.41;5031421;28;20021;-67
2023/01/11 07:05:31;;;;;;;21.98;2.75;;;;;;;10.70;100.00;100864.59;5031517;28;20107;-66
2023/01/11 07:07:57;;;;;;;18.60;3.00;;;;;;;10.52;100.00;100860.78;5013807;28;20032;-66
2023/01/11 07:10:22;;;;;;;22.55;3.78;;;;;;;10.61;100.00;100860.50;5031440;28;20033;-64
2023/01/11 07:12:47;;;;;;;19.00;3.17;;;;;;;10.55;100.00;100865.97;5032084;28;20052;-66
2023/01/11 07:15:13;;;;;;;26.63;3.58;;;;;;;10.50;100.00;100875.78;5030187;28;20071;-65
2023/01/11 07:17:38;;;;;;;24.33;3.85;;;;;;;10.41;100.00;100879.53;5031840;28;20034;-65
2023/01/11 07:20:05;;;;;;;25.33;3.30;;;;;;;10.36;100.00;100887.59;5031168;28;20087;-65
2023/01/11 07:22:33;;;;;;;35.90;3.95;;;;;;;10.36;100.00;100877.06;5014240;28;20025;-65
2023/01/11 07:24:58;;;;;;;19.30;2.88;;;;;;;10.22;100.00;100884.53;5031562;28;20060;-66
2023/01/11 07:27:23;;;;;;;14.70;2.83;;;;;;;10.17;100.00;100883.84;5031581;28;20033;-63
2023/01/11 07:29:49;;;;;;;28.58;3.67;;;;;;;10.06;100.00;100895.53;5031641;28;20018;-66
2023/01/11 07:32:14;;;;;;;24.17;3.38;;;;;;;9.94;100.00;100898.56;5031198;28;20056;-67
2023/01/11 07:34:39;;;;;;;22.17;3.80;;;;;;;9.95;100.00;100895.03;5031765;28;20579;-66
2023/01/11 07:37:05;;;;;;;17.15;3.22;;;;;;;9.90;100.00;100908.31;5031724;28;20101;-67
2023/01/11 07:39:30;;;;;;;31.70;3.70;;;;;;;9.91;100.00;100910.06;5031285;28;20068;-66
2023/01/11 07:44:39;;;;;;;26.40;4.05;;;;;;;9.82;100.00;100915.59;5028378;28;20072;-65
2023/01/11 07:47:05;;;;;;;29.10;3.08;;;;;;;9.80;100.00;100917.41;5030696;28;20049;-64
2023/01/11 07:49:31;;;;;;;19.73;4.00;;;;;;;9.83;100.00;100923.44;5030094;28;20148;-65
2023/01/11 07:51:56;;;;;;;22.00;3.72;;;;;;;9.80;100.00;100920.03;5030175;28;20028;-65
2023/01/11 07:54:23;;;;;;;20.90;3.85;;;;;;;9.71;100.00;100923.78;5031329;28;20442;-65
2023/01/11 07:56:49;;;;;;;24.90;3.55;;;;;;;9.72;100.00;100938.66;5030011;28;20056;-66
2023/01/11 07:59:14;;;;;;;28.83;3.90;;;;;;;9.66;100.00;100937.06;5028768;28;20056;-65
2023/01/11 08:01:39;;;;;;;19.20;3.33;;;;;;;9.72;100.00;100943.91;5029558;28;20369;-64
2023/01/11 08:04:07;;;;;;;35.13;4.28;;;;;;;9.65;100.00;100942.38;5029701;28;20111;-64
2023/01/11 08:06:32;;;;;;;26.20;3.72;;;;;;;9.63;100.00;100947.69;5030435;28;20446;-67
2023/01/11 08:08:57;;;;;;;32.95;4.20;;;;;;;9.68;100.00;100958.09;5030181;28;20057;-62
2023/01/11 08:16:53;;;;;;;18.98;3.70;;;;;;;9.63;100.00;100968.72;5029169;28;20072;-66
2023/01/11 08:19:18;;;;;;;20.83;3.50;;;;;;;9.63;100.00;100963.47;5029934;28;20026;-65
2023/01/11 08:21:44;;;;;;;22.67;3.22;;;;;;;9.69;100.00;100965.09;5030015;28;20036;-64
2023/01/11 08:24:09;;;;;;;23.42;3.75;;;;;;;9.65;100.00;100961.66;5029115;28;20057;-66
2023/01/11 08:26:35;;;;;;;26.08;3.83;;;;;;;9.64;100.00;100967.84;5029308;28;20083;-65
2023/01/11 08:29:00;;;;;;;25.20;3.95;;;;;;;9.59;100.00;100975.88;5029094;28;20176;-62
2023/01/11 08:31:25;;;;;;;27.10;3.25;;;;;;;9.62;100.00;100977.53;5029906;28;20037;-69
2023/01/11 08:33:51;;;;;;;22.15;2.90;;;;;;;9.61;100.00;100994.25;5029830;28;20044;-65
2023/01/11 08:36:16;;;;;;;32.53;3.75;;;;;;;9.63;100.00;100986.31;5029826;28;20025;-64
2023/01/11 08:38:42;;;;;;;22.20;3.40;;;;;;;9.58;100.00;100984.63;5029328;28;20030;-63
2023/01/11 08:41:10;;;;;;;25.90;3.70;;;;;;;9.57;100.00;100995.22;5027125;28;20018;-65
2023/01/11 08:43:37;;;;;;;17.00;3.65;;;;;;;9.50;100.00;100999.78;5028774;28;20022;-64
2023/01/11 08:46:02;;;;;;;27.40;5.00;;;;;;;9.52;100.00;100990.09;5027572;28;20105;-64
2023/01/11 08:48:27;;;;;;;35.05;3.85;;;;;;;9.50;100.00;100997.16;5029006;28;20022;-64
2023/01/11 08:50:53;;;;;;;27.20;3.80;;;;;;;9.55;100.00;101003.16;5028896;28;20022;-64
2023/01/11 08:53:19;;;;;;;33.72;3.72;;;;;;;9.59;100.00;101006.56;5029096;28;20079;-65
2023/01/11 08:55:47;;;;;;;25.10;3.75;;;;;;;9.62;100.00;100995.94;5028382;28;20025;-65
2023/01/11 08:58:12;;;;;;;22.92;4.03;;;;;;;9.52;100.00;100992.72;5028510;28;20024;-64
2023/01/11 09:00:37;;;;;;;28.48;3.92;;;;;;;9.56;100.00;100996.13;5027324;28;20120;-65
2023/01/11 09:03:03;;;;;;;30.50;3.92;;;;;;;9.57;100.00;101000.50;5026633;28;20025;-63
2023/01/11 09:05:28;;;;;;;25.38;3.97;;;;;;;9.64;100.00;100996.78;5024783;28;20065;-62
2023/01/11 09:07:54;;;;;;;25.52;3.67;;;;;;;9.75;100.00;101001.72;5028162;28;20032;-63
2023/01/11 09:10:19;;;;;;;17.30;3.70;;;;;;;9.72;100.00;100994.78;5028941;28;20477;-58
2023/01/11 09:12:45;;;;;;;18.75;2.97;;;;;;;9.84;100.00;100996.22;5028819;28;20036;-63
2023/01/11 09:15:10;;;;;;;26.42;4.30;;;;;;;9.78;100.00;100995.53;5028046;28;20057;-66
2023/01/11 09:17:36;;;;;;;23.60;3.50;;;;;;;9.88;100.00;101002.28;5028674;28;20033;-65
2023/01/11 09:20:01;;;;;;;29.05;3.70;;;;;;;9.84;100.00;101008.50;5028102;28;20544;-62
2023/01/11 09:22:26;;;;;;;21.73;2.90;;;;;;;9.85;100.00;101003.19;5023004;28;20410;-62
2023/01/11 09:24:52;;;;;;;35.55;5.22;;;;;;;9.92;100.00;101016.19;5010378;28;20451;-62
2023/01/11 09:27:18;;;;;;;26.08;3.65;;;;;;;9.93;100.00;101007.41;5008046;28;20041;-62
2023/01/11 09:29:44;;;;;;;24.90;4.32;;;;;;;9.94;100.00;101001.22;5007535;28;20034;-64
2023/01/11 09:32:10;;;;;;;19.23;3.08;;;;;;;9.93;100.00;100999.50;5008035;28;20475;-63
2023/01/11 09:34:35;;;;;;;26.30;3.75;;;;;;;9.85;100.00;100999.72;5008228;28;20025;-63
2023/01/11 09:37:05;;;;;;;30.80;4.05;;;;;;;10.01;100.00;101013.31;5008284;28;20022;-60
2023/01/11 09:39:32;;;;;;;24.88;3.63;;;;;;;10.03;100.00;101022.03;5008443;28;20030;-62
2023/01/11 09:42:04;;;;;;;20.58;3.70;;;;;;;10.09;100.00;101013.94;5007744;28;20025;-62
2023/01/11 09:44:31;;;;;;;36.67;6.43;;;;;;;9.98;100.00;101021.28;5008011;28;20041;-63
2023/01/11 09:47:11;;;;;;;23.17;3.65;;;;;;;10.06;100.00;101029.81;5001266;28;20029;-63
2023/01/11 09:49:39;;;;;;;24.63;4.03;;;;;;;10.09;100.00;101037.63;5025863;28;20523;-62
2023/01/11 09:52:23;;;;;;;26.45;3.60;;;;;;;10.07;100.00;101035.94;5007115;28;20028;-60
2023/01/11 09:54:49;;;;;;;23.88;2.95;;;;;;;10.18;100.00;101039.13;5006371;28;20052;-61
2023/01/11 09:57:27;;;;;;;28.27;3.60;;;;;;;10.24;100.00;101048.66;5024880;28;20388;-62
2023/01/11 10:00:03;;;;;;;28.00;3.80;;;;;;;10.21;100.00;101048.72;5022694;28;20034;-64
2023/01/11 10:03:09;;;;;;;26.63;3.67;;;;;;;10.23;100.00;101060.06;5025721;28;20066;-62
2023/01/11 10:05:50;;;;;;;24.60;3.58;;;;;;;10.34;100.00;101065.91;5022926;28;20120;-63
2023/01/11 10:08:29;;;;;;;30.13;3.83;;;;;;;10.30;100.00;101055.50;5019398;28;20026;-60
2023/01/11 10:11:04;;;;;;;;;;;;;;;10.38;100.00;101065.81;5025051;28;20029;-61
2023/01/11 10:13:32;;;;;;;25.30;3.92;;;;;;;10.34;100.00;101072.94;4992382;28;19913;-61
2023/01/11 10:16:04;;;;;;;23.67;3.20;;;;;;;10.39;100.00;101075.44;5017522;28;20044;-62
2023/01/11 10:18:32;;;;;;;26.40;5.03;;;;;;;10.52;100.00;101074.19;5025965;28;20155;-60
2023/01/11 10:21:11;;;;;;;30.00;4.57;;;;;;;10.47;100.00;101084.88;5022498;28;20277;-60
2023/01/11 10:23:48;;;;;;;26.08;3.85;;;;;;;10.48;100.00;101083.94;5006128;28;20053;-58
2023/01/11 10:26:28;;;;;;;23.52;3.38;;;;;;;10.47;100.00;101089.25;5003033;28;20025;-61
2023/01/11 10:29:21;;;;;;;19.30;3.00;;;;;;;10.51;100.00;101080.38;5023597;28;20503;-60
2023/01/11 10:32:17;;;;;;;26.70;3.05;;;;;;;10.54;100.00;101085.53;5011450;28;20444;-61
2023/01/11 10:35:13;;;;;;;26.48;4.15;;;;;;;10.58;100.00;101095.09;5014379;28;20033;-61
2023/01/11 10:42:53;;;;;;;21.70;3.53;;;;;;;10.81;100.00;101077.69;5029825;28;20045;-61
2023/01/11 10:45:24;;;;;;;21.30;3.72;;;;;;;10.72;100.00;101085.91;5011710;28;20030;-61
2023/01/11 10:48:08;;;;;;;26.52;3.47;;;;;;;10.98;100.00;101095.63;5012279;28;20021;-61
2023/01/11 10:50:47;;;;;;;25.65;3.55;;;;;;;11.08;100.00;101083.00;5009543;28;20076;-62
2023/01/11 10:53:14;;;;;;;23.30;3.70;;;;;;;11.17;100.00;101099.47;5029930;28;20500;-62
2023/01/11 10:56:01;;;;;;;21.92;3.50;;;;;;;11.28;100.00;101091.19;5029685;28;20017;-63
2023/01/11 10:58:41;;;;;;;35.03;6.63;;;;;;;11.44;100.00;101091.56;5030334;28;20036;-62
2023/01/11 11:01:23;;;;;;;20.50;3.70;;;;;;;11.32;100.00;101079.66;5029878;28;20048;-63
2023/01/11 11:04:05;;;;;;;22.48;4.75;;;;;;;11.38;100.00;101077.66;5030444;28;20088;-62
2023/01/11 11:06:42;;;;;;;22.70;2.85;;;;;;;11.54;100.00;101071.00;5030183;28;20475;-65
2023/01/11 11:09:15;;;;;;;19.83;3.22;;;;;;;11.53;100.00;101064.00;5012159;28;20022;-64
2023/01/11 11:11:52;;;;;;;20.15;3.10;;;;;;;11.35;100.00;101085.66;5030734;28;20053;-64
2023/01/11 11:14:42;;;;;;;19.35;3.30;;;;;;;11.32;100.00;101077.00;5006739;28;20034;-63
2023/01/11 11:17:18;;;;;;;22.00;3.20;;;;;;;11.34;100.00;101080.44;5026230;28;20029;-63
2023/01/11 11:19:44;;;;;;;22.08;3.50;;;;;;;11.37;100.00;101091.75;5028175;28;20104;-63
2023/01/11 11:22:10;;;;;;;23.13;3.47;;;;;;;11.57;100.00;101074.41;5028799;28;20608;-60
2023/01/11 11:24:37;;;;;;;17.38;3.25;;;;;;;11.63;100.00;101079.44;5011590;28;20037;-63
2023/01/11 11:27:11;;;;;;;12.32;3.08;;;;;;;11.47;100.00;101075.63;5028513;28;20418;-63
2023/01/11 11:29:42;;;;;;;20.05;3.70;;;;;;;11.75;100.00;101074.66;5027558;28;20029;-61
2023/01/11 11:32:17;;;;;;;25.83;3.75;;;;;;;11.60;100.00;101063.75;5029229;28;20053;-63
2023/01/11 11:34:49;;;;;;;20.95;3.05;;;;;;;11.74;100.00;101078.22;5028861;28;20494;-65
2023/01/11 11:37:20;;;;;;;18.77;3.47;;;;;;;11.90;100.00;101067.13;5009355;28;20521;-66
2023/01/11 11:39:48;;;;;;;24.42;3.65;;;;;;;11.80;100.00;101078.00;5011104;28;20424;-63
2023/01/11 11:42:19;;;;;;;27.35;3.55;;;;;;;11.97;100.00;101072.13;5029249;28;20029;-61
2023/01/11 11:45:04;;;;;;;21.02;3.15;;;;;;;11.74;100.00;101116.03;5028775;28;20075;-63
2023/01/11 11:47:29;;;;;;;27.50;3.55;;;;;;;11.80;100.00;101091.19;5029441;28;20021;-62
2023/01/11 11:50:23;;;;;;;20.42;4.05;;;;;;;11.84;100.00;101090.19;5011843;28;20036;-63
2023/01/11 11:52:55;;;;;;;23.00;3.67;;;;;;;11.75;100.00;101093.16;5012156;28;20096;-62
2023/01/11 11:55:27;;;;;;;29.08;4.53;;;;;;;11.63;100.00;101087.34;5011073;28;20037;-61
2023/01/11 11:57:52;;;;;;;23.80;3.00;;;;;;;11.48;100.00;101094.06;5009099;28;20045;-60